74NY weather

New Salem Aerodrome
Farmington, New York, United States

Public forecast

Using degrees Fahrenheit for public forecast. Weather courtesy of forecast.io.

METAR (pilot weather report)

Closest report is Greater Rochester International Airport, 18.0 nm (33.4 km) WNW. Retrieved 2019/05/19 14:54 UTC (57 minutes ago):

KROC 191454Z 18009KT 10SM FEW085 SCT200 BKN280 27/18 A2986 RMK AO2 SLP111 T02670183 58007

TAF (pilot weather forecast)

Closest forecast is Greater Rochester International Airport, 18.0 nm (33.4 km) WNW. Retrieved 2019/05/19 12:22 UTC (3 hours ago):

TAF KROC 191120Z 1912/2012 20012G22KT P6SM SCT100 FM191400 23008KT P6SM BKN050 FM191700 23005KT 6SM -SHRA VCTS BKN040CB FM200000 20008KT P6SM VCSH BKN100 WS015/25040KT